»·PEaware :: HYDRA64 KDLF-KSKF

HYDRA64 :: KDLF-KSKF

FLIGHT INFORMATION

Flight Status: Arrived
Operator: Unknown
More flights by this operator :: More flights under this callsign
Pilot: 47th FTW Laughlin (28783)
Aircraft: BEECH AIRCRAFT T-6A TEXAN
(TEX2)
More flights by this aircraft type
Origin: KDLF Laughlin AFB
United States
Destination: KSKF Lackland AFB Kelly Fld Annex
United States
More flights between these airports :: More routes between these airports
Route: +HINKO1 CSI CSI2 KSAT/D0+15
File this flight plan on PilotEdge
Remarks:
Altitude:
(Current/Filed)
21,000ft
Speed:
(Current/Filed)
255kts
Departed: 29-Jul-20 07:03 AM
Arrived: 29-Jul-20 08:02 AM
Distance/Time
Traveled:
115nm/0:59
Distance/Time
To Go:
Arrived

Flight Plot

Page will automatically refresh every two minutes.

Flight plan parsing failed; only flown route is shown


Map Options




Map Legend


Flown Route
Filed Route
Departure Airport
Arrival Airport
Navaid (VOR, NDB)
Fix

Horizontal Profiles

Position Reports

Time Latitude Longitude Heading Altitude Ground
Speed
29-Jul-20 06:53 29.362159 -100.787052 45 1074ft 0kts
29-Jul-20 06:54 29.362159 -100.787052 45 1074ft 0kts
29-Jul-20 06:55 29.362159 -100.787052 45 1074ft 0kts
29-Jul-20 06:56 29.362159 -100.787052 45 1074ft 0kts
29-Jul-20 06:57 29.362159 -100.787052 45 1074ft 0kts
29-Jul-20 06:58 29.362159 -100.787052 45 1074ft 0kts
29-Jul-20 06:59 29.362332 -100.786900 12 1073ft 6kts
29-Jul-20 07:00 29.364809 -100.789559 324 1076ft 16kts
29-Jul-20 07:01 29.365834 -100.788978 44 1078ft 6kts
29-Jul-20 07:02 29.363768 -100.783617 139 1145ft 91kts
29-Jul-20 07:03 29.337201 -100.748831 134 3173ft 175kts
29-Jul-20 07:04 29.302714 -100.711097 143 6078ft 177kts
29-Jul-20 07:05 29.327452 -100.678727 355 8761ft 222kts
29-Jul-20 07:06 29.390033 -100.685526 352 11790ft 231kts
29-Jul-20 07:07 29.454714 -100.685972 17 14882ft 239kts
29-Jul-20 07:08 29.509072 -100.641921 41 17737ft 243kts
29-Jul-20 07:09 29.559046 -100.590881 42 20321ft 249kts
29-Jul-20 07:10 29.617825 -100.537240 42 21034ft 296kts
29-Jul-20 07:11 29.685380 -100.475917 41 21007ft 318kts
29-Jul-20 07:12 29.753538 -100.410852 39 20933ft 324kts
29-Jul-20 07:13 29.826585 -100.351471 37 20998ft 322kts
29-Jul-20 07:14 29.899087 -100.290883 39 20998ft 321kts
29-Jul-20 07:15 29.969544 -100.227988 41 20949ft 322kts
29-Jul-20 07:16 30.039203 -100.163519 42 21023ft 319kts
29-Jul-20 07:17 30.082719 -100.087316 119 20759ft 288kts
29-Jul-20 07:18 30.063550 -99.997721 106 20946ft 291kts
29-Jul-20 07:19 30.050241 -99.905460 103 21046ft 292kts
29-Jul-20 07:20 30.037509 -99.813078 108 21103ft 290kts
29-Jul-20 07:21 30.018539 -99.725885 114 19776ft 260kts
29-Jul-20 07:22 30.001200 -99.647513 108 17212ft 251kts
29-Jul-20 07:23 29.986088 -99.570019 110 14942ft 246kts
29-Jul-20 07:24 29.970848 -99.493402 106 12726ft 246kts
29-Jul-20 07:25 29.958773 -99.417468 108 10504ft 237kts
29-Jul-20 07:26 29.948071 -99.339674 104 9956ft 249kts
29-Jul-20 07:27 29.932584 -99.263255 110 10072ft 244kts
29-Jul-20 07:28 29.914156 -99.187845 119 10083ft 238kts
29-Jul-20 07:29 29.886502 -99.117148 118 9915ft 242kts
29-Jul-20 07:30 29.861659 -99.045251 118 9972ft 240kts
29-Jul-20 07:31 29.834404 -98.977902 121 8539ft 222kts
29-Jul-20 07:32 29.807666 -98.917125 121 6336ft 206kts
29-Jul-20 07:33 29.782476 -98.860235 129 4090ft 196kts
29-Jul-20 07:34 29.754913 -98.810682 146 3490ft 163kts
29-Jul-20 07:35 29.732283 -98.766330 125 3486ft 158kts
29-Jul-20 07:36 29.714616 -98.720171 121 3011ft 149kts
29-Jul-20 07:37 29.696248 -98.683282 133 3102ft 126kts
29-Jul-20 07:38 29.672881 -98.651235 143 3159ft 137kts
29-Jul-20 07:39 29.647960 -98.618773 139 2834ft 124kts
29-Jul-20 07:40 29.628359 -98.593606 140 2806ft 95kts
29-Jul-20 07:41 29.611497 -98.569977 147 2798ft 93kts
29-Jul-20 07:42 29.593944 -98.547958 140 2264ft 92kts
29-Jul-20 07:43 29.577146 -98.526648 146 1784ft 88kts
29-Jul-20 07:44 29.560111 -98.506436 146 1309ft 86kts
29-Jul-20 07:45 29.543677 -98.485777 142 1659ft 114kts
29-Jul-20 07:46 29.521571 -98.458107 146 2824ft 101kts
29-Jul-20 07:47 29.489141 -98.444752 164 3228ft 154kts
29-Jul-20 07:48 29.442844 -98.428364 168 3144ft 184kts
29-Jul-20 07:49 29.392649 -98.412534 166 3187ft 187kts
29-Jul-20 07:50 29.343033 -98.391902 165 3150ft 191kts
29-Jul-20 07:51 29.291933 -98.374621 164 3130ft 191kts
29-Jul-20 07:52 29.241866 -98.353825 163 3119ft 190kts
29-Jul-20 07:53 29.204176 -98.368934 257 2715ft 184kts
29-Jul-20 07:54 29.201146 -98.422247 255 2586ft 161kts
29-Jul-20 07:55 29.196746 -98.473044 254 2624ft 162kts
29-Jul-20 07:56 29.230792 -98.512878 317 2593ft 161kts
29-Jul-20 07:57 29.263885 -98.537956 323 2614ft 143kts
29-Jul-20 07:58 29.297731 -98.561429 336 2527ft 149kts
29-Jul-20 07:59 29.338424 -98.562875 338 1269ft 142kts
29-Jul-20 08:00 29.374360 -98.577344 340 693ft 104kts
29-Jul-20 08:01 29.388078 -98.582266 331 692ft 30kts
29-Jul-20 08:02 29.392599 -98.581144 88 692ft 17kts
29-Jul-20 08:03 29.391206 -98.577685 86 692ft 10kts

Navigation Log

Ident Type
Flight plan parsing failed, navigation log unavailable